Terminal Aerodrome Forecast
Issued by NWS

Home | Current Version | Previous Version | Text Only | Print | Product List | Glossary On
Versions: 1 2 3 4 5 6 7 8 9 10 11 12 13 14 15
869
FTUS46 KMTR 202328
TAFSNS
TAF
KSNS 202328Z 2100/2124 13018G27KT P6SM BKN040 BKN100 WS015/20060KT
     FM210100 19025G30KT 4SM RA OVC030 WS015/23050KT
     FM210800 19025G30KT 6SM SHRA BR OVC030
     FM211200 18013KT P6SM SHRA OVC030
     FM212000 24012G20KT P6SM VCSH BKN050=

USA.gov is the U.S. government's official web portal to all federal, state and local government web resources and services.